sensor_id;sensor_type;location;lat;lon;timestamp;temperature;humidity
22540;DHT22;11436;50.860;4.334;2022-08-05T00:01:00;22.20;99.90
22540;DHT22;11436;50.860;4.334;2022-08-05T00:03:26;22.20;99.90
22540;DHT22;11436;50.860;4.334;2022-08-05T00:05:51;22.20;99.90
22540;DHT22;11436;50.860;4.334;2022-08-05T00:08:17;22.20;99.90
22540;DHT22;11436;50.860;4.334;2022-08-05T00:10:43;22.20;99.90
22540;DHT22;11436;50.860;4.334;2022-08-05T00:13:09;22.20;99.90
22540;DHT22;11436;50.860;4.334;2022-08-05T00:15:35;22.30;99.90
22540;DHT22;11436;50.860;4.334;2022-08-05T00:18:01;22.30;99.90
22540;DHT22;11436;50.860;4.334;2022-08-05T00:20:27;22.30;99.90
22540;DHT22;11436;50.860;4.334;2022-08-05T00:22:52;22.30;99.90
22540;DHT22;11436;50.860;4.334;2022-08-05T00:25:18;22.30;99.90
22540;DHT22;11436;50.860;4.334;2022-08-05T00:27:44;22.10;99.90
22540;DHT22;11436;50.860;4.334;2022-08-05T00:30:10;22.00;99.90
22540;DHT22;11436;50.860;4.334;2022-08-05T00:32:36;22.00;99.90
22540;DHT22;11436;50.860;4.334;2022-08-05T00:35:01;22.10;99.90
22540;DHT22;11436;50.860;4.334;2022-08-05T00:37:27;22.10;99.90
22540;DHT22;11436;50.860;4.334;2022-08-05T00:39:53;21.90;99.90
22540;DHT22;11436;50.860;4.334;2022-08-05T00:42:35;21.70;99.90
22540;DHT22;11436;50.860;4.334;2022-08-05T00:45:03;21.70;99.90
22540;DHT22;11436;50.860;4.334;2022-08-05T00:47:29;21.90;99.90
22540;DHT22;11436;50.860;4.334;2022-08-05T00:49:55;21.90;99.90
22540;DHT22;11436;50.860;4.334;2022-08-05T00:52:21;21.80;99.90
22540;DHT22;11436;50.860;4.334;2022-08-05T00:54:47;21.80;99.90
22540;DHT22;11436;50.860;4.334;2022-08-05T00:57:13;21.90;99.90
22540;DHT22;11436;50.860;4.334;2022-08-05T00:59:39;21.90;99.90
22540;DHT22;11436;50.860;4.334;2022-08-05T01:02:04;21.80;99.90
22540;DHT22;11436;50.860;4.334;2022-08-05T01:04:30;21.80;99.90
22540;DHT22;11436;50.860;4.334;2022-08-05T01:06:56;21.80;99.90
22540;DHT22;11436;50.860;4.334;2022-08-05T01:09:21;21.70;99.90
22540;DHT22;11436;50.860;4.334;2022-08-05T01:11:52;21.60;99.90
22540;DHT22;11436;50.860;4.334;2022-08-05T01:14:25;21.50;99.90
22540;DHT22;11436;50.860;4.334;2022-08-05T01:17:04;21.40;99.90
22540;DHT22;11436;50.860;4.334;2022-08-05T01:30:28;21.00;99.90
22540;DHT22;11436;50.860;4.334;2022-08-05T01:32:58;21.00;99.90
22540;DHT22;11436;50.860;4.334;2022-08-05T01:35:26;21.20;99.90
22540;DHT22;11436;50.860;4.334;2022-08-05T01:37:54;21.40;99.90
22540;DHT22;11436;50.860;4.334;2022-08-05T01:40:25;21.40;99.90
22540;DHT22;11436;50.860;4.334;2022-08-05T01:42:53;21.30;99.90
22540;DHT22;11436;50.860;4.334;2022-08-05T01:45:19;21.30;99.90
22540;DHT22;11436;50.860;4.334;2022-08-05T01:47:48;21.20;99.90
22540;DHT22;11436;50.860;4.334;2022-08-05T01:50:27;21.20;99.90
22540;DHT22;11436;50.860;4.334;2022-08-05T01:52:57;21.20;99.90
22540;DHT22;11436;50.860;4.334;2022-08-05T01:55:27;21.20;99.90
22540;DHT22;11436;50.860;4.334;2022-08-05T01:57:54;21.20;99.90
22540;DHT22;11436;50.860;4.334;2022-08-05T02:00:20;21.30;99.90
22540;DHT22;11436;50.860;4.334;2022-08-05T02:02:57;21.30;99.90
22540;DHT22;11436;50.860;4.334;2022-08-05T02:05:31;21.30;99.90
22540;DHT22;11436;50.860;4.334;2022-08-05T02:07:57;21.30;99.90
22540;DHT22;11436;50.860;4.334;2022-08-05T02:10:25;21.30;99.90
22540;DHT22;11436;50.860;4.334;2022-08-05T02:12:52;21.30;99.90
22540;DHT22;11436;50.860;4.334;2022-08-05T02:18:02;21.40;99.90
22540;DHT22;11436;50.860;4.334;2022-08-05T02:20:50;21.50;99.90
22540;DHT22;11436;50.860;4.334;2022-08-05T02:23:21;21.50;99.90
22540;DHT22;11436;50.860;4.334;2022-08-05T02:25:49;21.60;99.90
22540;DHT22;11436;50.860;4.334;2022-08-05T02:28:27;21.50;99.90
22540;DHT22;11436;50.860;4.334;2022-08-05T02:30:57;21.50;99.90
22540;DHT22;11436;50.860;4.334;2022-08-05T02:33:25;21.50;99.90
22540;DHT22;11436;50.860;4.334;2022-08-05T02:35:55;21.40;99.90
22540;DHT22;11436;50.860;4.334;2022-08-05T02:38:22;21.40;99.90
22540;DHT22;11436;50.860;4.334;2022-08-05T02:40:48;21.30;99.90
22540;DHT22;11436;50.860;4.334;2022-08-05T02:43:16;21.10;99.90
22540;DHT22;11436;50.860;4.334;2022-08-05T02:45:44;21.10;99.90
22540;DHT22;11436;50.860;4.334;2022-08-05T02:48:11;21.10;99.90
22540;DHT22;11436;50.860;4.334;2022-08-05T02:50:38;21.20;99.90
22540;DHT22;11436;50.860;4.334;2022-08-05T02:53:06;21.10;99.90
22540;DHT22;11436;50.860;4.334;2022-08-05T02:55:33;21.00;99.90
22540;DHT22;11436;50.860;4.334;2022-08-05T02:57:59;21.20;99.90
22540;DHT22;11436;50.860;4.334;2022-08-05T03:00:26;21.10;99.90
22540;DHT22;11436;50.860;4.334;2022-08-05T03:02:53;21.10;99.90
22540;DHT22;11436;50.860;4.334;2022-08-05T03:05:21;21.30;99.90
22540;DHT22;11436;50.860;4.334;2022-08-05T03:07:47;21.30;99.90
22540;DHT22;11436;50.860;4.334;2022-08-05T03:10:16;21.10;99.90
22540;DHT22;11436;50.860;4.334;2022-08-05T03:12:42;21.10;99.90
22540;DHT22;11436;50.860;4.334;2022-08-05T03:15:09;21.20;99.90
22540;DHT22;11436;50.860;4.334;2022-08-05T03:17:36;21.10;99.90
22540;DHT22;11436;50.860;4.334;2022-08-05T03:20:02;21.00;99.90
22540;DHT22;11436;50.860;4.334;2022-08-05T03:22:28;20.90;99.90
22540;DHT22;11436;50.860;4.334;2022-08-05T03:24:54;20.90;99.90
22540;DHT22;11436;50.860;4.334;2022-08-05T03:27:21;20.80;99.90
22540;DHT22;11436;50.860;4.334;2022-08-05T03:29:47;21.00;99.90
22540;DHT22;11436;50.860;4.334;2022-08-05T03:32:14;21.10;99.90
22540;DHT22;11436;50.860;4.334;2022-08-05T03:34:41;21.00;99.90
22540;DHT22;11436;50.860;4.334;2022-08-05T03:37:07;20.90;99.90
22540;DHT22;11436;50.860;4.334;2022-08-05T03:39:33;20.90;99.90
22540;DHT22;11436;50.860;4.334;2022-08-05T03:41:58;20.90;99.90
22540;DHT22;11436;50.860;4.334;2022-08-05T03:44:25;21.00;99.90
22540;DHT22;11436;50.860;4.334;2022-08-05T03:46:51;20.90;99.90
22540;DHT22;11436;50.860;4.334;2022-08-05T03:49:16;20.70;99.90
22540;DHT22;11436;50.860;4.334;2022-08-05T03:52:10;20.60;99.90
22540;DHT22;11436;50.860;4.334;2022-08-05T03:54:58;20.60;99.90
22540;DHT22;11436;50.860;4.334;2022-08-05T03:57:28;20.50;99.90
22540;DHT22;11436;50.860;4.334;2022-08-05T04:00:00;20.50;99.90
22540;DHT22;11436;50.860;4.334;2022-08-05T04:02:30;20.50;99.90
22540;DHT22;11436;50.860;4.334;2022-08-05T04:04:58;20.50;99.90
22540;DHT22;11436;50.860;4.334;2022-08-05T04:07:24;20.60;99.90
22540;DHT22;11436;50.860;4.334;2022-08-05T04:09:52;20.40;99.90
22540;DHT22;11436;50.860;4.334;2022-08-05T04:12:19;20.50;99.90
22540;DHT22;11436;50.860;4.334;2022-08-05T04:14:44;20.60;99.90
22540;DHT22;11436;50.860;4.334;2022-08-05T04:17:11;20.80;99.90
22540;DHT22;11436;50.860;4.334;2022-08-05T04:19:45;20.90;99.90
22540;DHT22;11436;50.860;4.334;2022-08-05T04:22:11;20.70;99.90
22540;DHT22;11436;50.860;4.334;2022-08-05T04:24:39;20.50;99.90
22540;DHT22;11436;50.860;4.334;2022-08-05T04:27:05;20.40;99.90
22540;DHT22;11436;50.860;4.334;2022-08-05T04:29:30;20.40;99.90
22540;DHT22;11436;50.860;4.334;2022-08-05T04:31:56;20.50;99.90
22540;DHT22;11436;50.860;4.334;2022-08-05T04:34:22;20.60;99.90
22540;DHT22;11436;50.860;4.334;2022-08-05T04:36:47;20.60;99.90
22540;DHT22;11436;50.860;4.334;2022-08-05T04:39:13;20.50;99.90
22540;DHT22;11436;50.860;4.334;2022-08-05T04:41:39;20.50;99.90
22540;DHT22;11436;50.860;4.334;2022-08-05T04:44:05;20.50;99.90
22540;DHT22;11436;50.860;4.334;2022-08-05T04:46:31;20.60;99.90
22540;DHT22;11436;50.860;4.334;2022-08-05T04:48:56;20.80;99.90
22540;DHT22;11436;50.860;4.334;2022-08-05T04:51:22;20.80;99.90
22540;DHT22;11436;50.860;4.334;2022-08-05T04:53:48;20.80;99.90
22540;DHT22;11436;50.860;4.334;2022-08-05T04:56:13;20.80;99.90
22540;DHT22;11436;50.860;4.334;2022-08-05T04:58:40;20.80;99.90
22540;DHT22;11436;50.860;4.334;2022-08-05T05:01:05;20.80;99.90
22540;DHT22;11436;50.860;4.334;2022-08-05T05:03:31;20.80;99.90
22540;DHT22;11436;50.860;4.334;2022-08-05T05:05:57;20.70;99.90
22540;DHT22;11436;50.860;4.334;2022-08-05T05:08:23;20.70;99.90
22540;DHT22;11436;50.860;4.334;2022-08-05T05:10:49;20.80;99.90
22540;DHT22;11436;50.860;4.334;2022-08-05T05:13:16;21.00;99.90
22540;DHT22;11436;50.860;4.334;2022-08-05T05:15:44;21.00;99.90
22540;DHT22;11436;50.860;4.334;2022-08-05T05:18:12;21.10;99.90
22540;DHT22;11436;50.860;4.334;2022-08-05T05:20:41;20.60;99.90
22540;DHT22;11436;50.860;4.334;2022-08-05T05:23:07;20.70;99.90
22540;DHT22;11436;50.860;4.334;2022-08-05T05:25:33;20.80;99.90
22540;DHT22;11436;50.860;4.334;2022-08-05T05:27:59;20.80;99.90
22540;DHT22;11436;50.860;4.334;2022-08-05T05:30:24;20.80;99.90
22540;DHT22;11436;50.860;4.334;2022-08-05T05:32:50;21.10;99.90
22540;DHT22;11436;50.860;4.334;2022-08-05T05:35:16;21.20;99.90
22540;DHT22;11436;50.860;4.334;2022-08-05T05:37:56;21.00;99.90
22540;DHT22;11436;50.860;4.334;2022-08-05T05:40:25;21.00;99.90
22540;DHT22;11436;50.860;4.334;2022-08-05T05:42:51;20.90;99.90
22540;DHT22;11436;50.860;4.334;2022-08-05T05:45:18;20.90;99.90
22540;DHT22;11436;50.860;4.334;2022-08-05T05:47:44;20.80;99.90
22540;DHT22;11436;50.860;4.334;2022-08-05T05:50:13;20.70;99.90
22540;DHT22;11436;50.860;4.334;2022-08-05T05:52:39;20.70;99.90
22540;DHT22;11436;50.860;4.334;2022-08-05T05:55:07;20.60;99.90
22540;DHT22;11436;50.860;4.334;2022-08-05T05:57:34;20.60;99.90
22540;DHT22;11436;50.860;4.334;2022-08-05T06:00:03;20.50;99.90
22540;DHT22;11436;50.860;4.334;2022-08-05T06:02:29;20.60;99.90
22540;DHT22;11436;50.860;4.334;2022-08-05T06:04:54;20.70;99.90
22540;DHT22;11436;50.860;4.334;2022-08-05T06:07:20;20.70;99.90
22540;DHT22;11436;50.860;4.334;2022-08-05T06:09:46;20.80;99.90
22540;DHT22;11436;50.860;4.334;2022-08-05T06:12:12;20.90;99.90
22540;DHT22;11436;50.860;4.334;2022-08-05T06:14:37;21.00;99.90
22540;DHT22;11436;50.860;4.334;2022-08-05T06:17:03;20.90;99.90
22540;DHT22;11436;50.860;4.334;2022-08-05T06:19:29;20.90;99.90
22540;DHT22;11436;50.860;4.334;2022-08-05T06:21:55;20.90;99.90
22540;DHT22;11436;50.860;4.334;2022-08-05T06:24:21;20.90;99.90
22540;DHT22;11436;50.860;4.334;2022-08-05T06:26:47;21.00;99.90
22540;DHT22;11436;50.860;4.334;2022-08-05T06:29:13;21.30;99.90
22540;DHT22;11436;50.860;4.334;2022-08-05T06:31:38;21.30;99.90
22540;DHT22;11436;50.860;4.334;2022-08-05T06:34:04;21.10;99.90
22540;DHT22;11436;50.860;4.334;2022-08-05T06:36:31;20.90;99.90
22540;DHT22;11436;50.860;4.334;2022-08-05T06:38:56;21.20;99.90
22540;DHT22;11436;50.860;4.334;2022-08-05T06:41:22;21.20;99.90
22540;DHT22;11436;50.860;4.334;2022-08-05T06:43:48;21.20;99.90
22540;DHT22;11436;50.860;4.334;2022-08-05T06:46:14;21.40;99.90
22540;DHT22;11436;50.860;4.334;2022-08-05T06:48:40;21.70;99.90
22540;DHT22;11436;50.860;4.334;2022-08-05T06:51:06;21.60;99.90
22540;DHT22;11436;50.860;4.334;2022-08-05T06:53:32;21.90;99.90
22540;DHT22;11436;50.860;4.334;2022-08-05T06:56:00;22.20;99.90
22540;DHT22;11436;50.860;4.334;2022-08-05T06:58:28;22.10;99.90
22540;DHT22;11436;50.860;4.334;2022-08-05T07:00:56;21.10;99.90
22540;DHT22;11436;50.860;4.334;2022-08-05T07:03:22;21.10;99.90
22540;DHT22;11436;50.860;4.334;2022-08-05T07:05:48;21.40;99.90
22540;DHT22;11436;50.860;4.334;2022-08-05T07:08:14;21.50;99.90
22540;DHT22;11436;50.860;4.334;2022-08-05T07:10:40;21.50;99.90
22540;DHT22;11436;50.860;4.334;2022-08-05T07:13:05;21.40;99.90
22540;DHT22;11436;50.860;4.334;2022-08-05T07:15:49;21.40;99.90
22540;DHT22;11436;50.860;4.334;2022-08-05T07:18:34;21.50;99.90
22540;DHT22;11436;50.860;4.334;2022-08-05T07:21:00;21.40;99.90
22540;DHT22;11436;50.860;4.334;2022-08-05T07:23:26;21.30;99.90
22540;DHT22;11436;50.860;4.334;2022-08-05T07:25:52;21.20;99.90
22540;DHT22;11436;50.860;4.334;2022-08-05T07:28:17;20.90;99.90
22540;DHT22;11436;50.860;4.334;2022-08-05T07:30:43;20.70;99.90
22540;DHT22;11436;50.860;4.334;2022-08-05T07:33:10;21.10;99.90
22540;DHT22;11436;50.860;4.334;2022-08-05T07:35:39;21.10;99.90
22540;DHT22;11436;50.860;4.334;2022-08-05T07:38:05;21.10;99.90
22540;DHT22;11436;50.860;4.334;2022-08-05T07:40:31;21.10;99.90
22540;DHT22;11436;50.860;4.334;2022-08-05T07:42:56;21.40;99.90
22540;DHT22;11436;50.860;4.334;2022-08-05T07:45:22;21.70;99.90
22540;DHT22;11436;50.860;4.334;2022-08-05T07:47:48;21.80;99.90
22540;DHT22;11436;50.860;4.334;2022-08-05T07:50:14;21.70;99.90
22540;DHT22;11436;50.860;4.334;2022-08-05T07:52:43;21.70;99.90
22540;DHT22;11436;50.860;4.334;2022-08-05T07:55:09;21.30;99.90
22540;DHT22;11436;50.860;4.334;2022-08-05T07:57:36;21.40;99.90
22540;DHT22;11436;50.860;4.334;2022-08-05T08:00:04;21.20;99.90
22540;DHT22;11436;50.860;4.334;2022-08-05T08:02:30;21.00;99.90
22540;DHT22;11436;50.860;4.334;2022-08-05T08:04:56;21.00;99.90
22540;DHT22;11436;50.860;4.334;2022-08-05T08:07:22;21.10;99.90
22540;DHT22;11436;50.860;4.334;2022-08-05T08:09:49;21.20;99.90
22540;DHT22;11436;50.860;4.334;2022-08-05T08:12:15;21.30;99.90
22540;DHT22;11436;50.860;4.334;2022-08-05T08:14:41;21.20;99.90
22540;DHT22;11436;50.860;4.334;2022-08-05T08:17:07;21.20;99.90
22540;DHT22;11436;50.860;4.334;2022-08-05T08:19:37;21.40;99.90
22540;DHT22;11436;50.860;4.334;2022-08-05T08:22:03;21.60;99.90
22540;DHT22;11436;50.860;4.334;2022-08-05T08:24:30;21.30;99.90
22540;DHT22;11436;50.860;4.334;2022-08-05T08:26:56;21.30;99.90
22540;DHT22;11436;50.860;4.334;2022-08-05T08:29:21;21.40;99.90
22540;DHT22;11436;50.860;4.334;2022-08-05T08:31:48;21.60;99.90
22540;DHT22;11436;50.860;4.334;2022-08-05T08:34:15;21.30;99.90
22540;DHT22;11436;50.860;4.334;2022-08-05T08:36:42;21.40;99.90
22540;DHT22;11436;50.860;4.334;2022-08-05T08:39:07;21.50;99.90
22540;DHT22;11436;50.860;4.334;2022-08-05T08:41:35;21.70;99.90
22540;DHT22;11436;50.860;4.334;2022-08-05T08:44:02;22.00;99.90
22540;DHT22;11436;50.860;4.334;2022-08-05T08:46:30;22.30;99.90
22540;DHT22;11436;50.860;4.334;2022-08-05T08:48:57;22.30;99.90
22540;DHT22;11436;50.860;4.334;2022-08-05T08:51:26;22.00;99.90
22540;DHT22;11436;50.860;4.334;2022-08-05T08:53:52;21.80;99.90
22540;DHT22;11436;50.860;4.334;2022-08-05T08:56:18;21.40;99.90
22540;DHT22;11436;50.860;4.334;2022-08-05T08:58:46;21.20;99.90
22540;DHT22;11436;50.860;4.334;2022-08-05T09:01:12;21.20;99.90
22540;DHT22;11436;50.860;4.334;2022-08-05T09:03:39;21.60;99.90
22540;DHT22;11436;50.860;4.334;2022-08-05T09:06:06;22.20;99.90
22540;DHT22;11436;50.860;4.334;2022-08-05T09:08:32;22.50;99.90
22540;DHT22;11436;50.860;4.334;2022-08-05T09:10:58;22.70;99.90
22540;DHT22;11436;50.860;4.334;2022-08-05T09:13:24;22.70;99.90
22540;DHT22;11436;50.860;4.334;2022-08-05T09:15:51;22.40;99.90
22540;DHT22;11436;50.860;4.334;2022-08-05T09:18:18;22.20;99.90
22540;DHT22;11436;50.860;4.334;2022-08-05T09:20:44;21.90;99.90
22540;DHT22;11436;50.860;4.334;2022-08-05T09:23:13;21.80;99.90
22540;DHT22;11436;50.860;4.334;2022-08-05T09:25:44;21.60;99.90
22540;DHT22;11436;50.860;4.334;2022-08-05T09:28:15;21.60;99.90
22540;DHT22;11436;50.860;4.334;2022-08-05T09:33:17;22.00;99.90
22540;DHT22;11436;50.860;4.334;2022-08-05T09:38:22;22.50;99.90
22540;DHT22;11436;50.860;4.334;2022-08-05T09:40:47;22.40;99.90
22540;DHT22;11436;50.860;4.334;2022-08-05T09:43:31;22.00;99.90
22540;DHT22;11436;50.860;4.334;2022-08-05T09:45:57;22.00;99.90
22540;DHT22;11436;50.860;4.334;2022-08-05T09:48:25;22.00;99.90
22540;DHT22;11436;50.860;4.334;2022-08-05T09:51:00;22.30;99.90
22540;DHT22;11436;50.860;4.334;2022-08-05T09:53:27;22.60;99.90
22540;DHT22;11436;50.860;4.334;2022-08-05T09:55:57;22.30;99.90
22540;DHT22;11436;50.860;4.334;2022-08-05T09:58:24;22.20;99.90
22540;DHT22;11436;50.860;4.334;2022-08-05T10:01:01;22.30;99.90
22540;DHT22;11436;50.860;4.334;2022-08-05T10:03:28;22.40;99.90
22540;DHT22;11436;50.860;4.334;2022-08-05T10:06:01;22.50;99.90
22540;DHT22;11436;50.860;4.334;2022-08-05T10:08:27;22.50;99.90
22540;DHT22;11436;50.860;4.334;2022-08-05T10:10:53;22.40;99.90
22540;DHT22;11436;50.860;4.334;2022-08-05T10:13:37;22.40;99.90
22540;DHT22;11436;50.860;4.334;2022-08-05T10:16:05;22.60;99.90
22540;DHT22;11436;50.860;4.334;2022-08-05T10:18:32;22.80;99.90
22540;DHT22;11436;50.860;4.334;2022-08-05T10:21:03;23.00;99.90
22540;DHT22;11436;50.860;4.334;2022-08-05T10:23:36;23.20;99.90
22540;DHT22;11436;50.860;4.334;2022-08-05T10:26:07;23.00;99.90
22540;DHT22;11436;50.860;4.334;2022-08-05T10:28:33;22.70;99.90
22540;DHT22;11436;50.860;4.334;2022-08-05T10:31:00;22.50;99.90
22540;DHT22;11436;50.860;4.334;2022-08-05T10:33:28;22.40;99.90
22540;DHT22;11436;50.860;4.334;2022-08-05T10:35:56;22.40;99.90
22540;DHT22;11436;50.860;4.334;2022-08-05T10:38:24;22.50;99.90
22540;DHT22;11436;50.860;4.334;2022-08-05T10:46:14;23.20;99.90
22540;DHT22;11436;50.860;4.334;2022-08-05T10:48:42;23.20;99.90
22540;DHT22;11436;50.860;4.334;2022-08-05T10:51:15;23.20;99.90
22540;DHT22;11436;50.860;4.334;2022-08-05T10:56:16;22.90;99.90
22540;DHT22;11436;50.860;4.334;2022-08-05T11:01:34;23.10;99.90
22540;DHT22;11436;50.860;4.334;2022-08-05T11:04:09;23.40;99.90
22540;DHT22;11436;50.860;4.334;2022-08-05T11:09:27;23.90;99.90
22540;DHT22;11436;50.860;4.334;2022-08-05T11:11:53;23.60;99.90
22540;DHT22;11436;50.860;4.334;2022-08-05T11:14:30;23.40;99.90
22540;DHT22;11436;50.860;4.334;2022-08-05T11:19:49;23.90;99.90
22540;DHT22;11436;50.860;4.334;2022-08-05T11:22:38;23.70;99.90
22540;DHT22;11436;50.860;4.334;2022-08-05T11:25:29;23.60;99.90
22540;DHT22;11436;50.860;4.334;2022-08-05T11:33:51;23.90;99.90
22540;DHT22;11436;50.860;4.334;2022-08-05T11:36:39;23.40;99.90
22540;DHT22;11436;50.860;4.334;2022-08-05T11:39:06;23.40;99.90
22540;DHT22;11436;50.860;4.334;2022-08-05T11:41:33;23.30;99.90
22540;DHT22;11436;50.860;4.334;2022-08-05T11:44:10;23.20;99.90
22540;DHT22;11436;50.860;4.334;2022-08-05T11:49:05;23.00;99.90
22540;DHT22;11436;50.860;4.334;2022-08-05T11:51:31;23.40;99.90
22540;DHT22;11436;50.860;4.334;2022-08-05T11:53:57;23.60;99.90
22540;DHT22;11436;50.860;4.334;2022-08-05T11:56:25;23.20;99.90
22540;DHT22;11436;50.860;4.334;2022-08-05T11:59:12;23.10;99.90
22540;DHT22;11436;50.860;4.334;2022-08-05T12:01:52;23.10;99.90
22540;DHT22;11436;50.860;4.334;2022-08-05T12:04:18;23.10;99.90
22540;DHT22;11436;50.860;4.334;2022-08-05T12:06:44;23.00;99.90
22540;DHT22;11436;50.860;4.334;2022-08-05T12:09:10;23.10;99.90
22540;DHT22;11436;50.860;4.334;2022-08-05T12:11:36;23.00;99.90
22540;DHT22;11436;50.860;4.334;2022-08-05T12:14:06;23.00;99.90
22540;DHT22;11436;50.860;4.334;2022-08-05T12:16:44;23.00;99.90
22540;DHT22;11436;50.860;4.334;2022-08-05T12:19:14;23.10;99.90
22540;DHT22;11436;50.860;4.334;2022-08-05T12:21:50;23.00;99.90
22540;DHT22;11436;50.860;4.334;2022-08-05T12:24:20;23.30;99.90
22540;DHT22;11436;50.860;4.334;2022-08-05T12:26:48;23.40;99.90
22540;DHT22;11436;50.860;4.334;2022-08-05T12:29:22;23.50;99.90
22540;DHT22;11436;50.860;4.334;2022-08-05T12:31:57;23.50;99.90
22540;DHT22;11436;50.860;4.334;2022-08-05T12:34:30;23.60;99.90
22540;DHT22;11436;50.860;4.334;2022-08-05T12:36:59;24.40;99.90
22540;DHT22;11436;50.860;4.334;2022-08-05T12:39:26;24.70;99.90
22540;DHT22;11436;50.860;4.334;2022-08-05T12:42:00;25.10;99.90
22540;DHT22;11436;50.860;4.334;2022-08-05T12:44:25;25.50;99.90
22540;DHT22;11436;50.860;4.334;2022-08-05T12:46:53;25.60;99.90
22540;DHT22;11436;50.860;4.334;2022-08-05T12:49:20;25.90;99.90
22540;DHT22;11436;50.860;4.334;2022-08-05T12:51:49;26.40;99.90
22540;DHT22;11436;50.860;4.334;2022-08-05T12:54:23;26.10;99.90
22540;DHT22;11436;50.860;4.334;2022-08-05T12:56:52;26.40;99.90
22540;DHT22;11436;50.860;4.334;2022-08-05T12:59:20;26.80;99.90
22540;DHT22;11436;50.860;4.334;2022-08-05T13:02:06;27.30;99.90
22540;DHT22;11436;50.860;4.334;2022-08-05T13:04:51;27.00;99.90
22540;DHT22;11436;50.860;4.334;2022-08-05T13:07:23;26.30;99.90
22540;DHT22;11436;50.860;4.334;2022-08-05T13:09:52;26.30;99.90
22540;DHT22;11436;50.860;4.334;2022-08-05T13:12:20;26.00;99.90
22540;DHT22;11436;50.860;4.334;2022-08-05T13:17:27;25.60;99.90
22540;DHT22;11436;50.860;4.334;2022-08-05T13:20:13;25.40;99.90
22540;DHT22;11436;50.860;4.334;2022-08-05T13:22:50;25.20;99.90
22540;DHT22;11436;50.860;4.334;2022-08-05T13:25:17;24.80;99.90
22540;DHT22;11436;50.860;4.334;2022-08-05T13:28:01;24.60;99.90
22540;DHT22;11436;50.860;4.334;2022-08-05T13:30:28;24.60;99.90
22540;DHT22;11436;50.860;4.334;2022-08-05T13:32:54;24.50;99.90
22540;DHT22;11436;50.860;4.334;2022-08-05T13:35:20;24.30;99.90
22540;DHT22;11436;50.860;4.334;2022-08-05T13:37:47;24.20;99.90
22540;DHT22;11436;50.860;4.334;2022-08-05T13:40:13;24.30;99.90
22540;DHT22;11436;50.860;4.334;2022-08-05T13:42:40;24.40;99.90
22540;DHT22;11436;50.860;4.334;2022-08-05T13:45:06;24.10;99.90
22540;DHT22;11436;50.860;4.334;2022-08-05T13:47:33;24.30;99.90
22540;DHT22;11436;50.860;4.334;2022-08-05T13:49:59;24.60;99.90
22540;DHT22;11436;50.860;4.334;2022-08-05T13:52:26;25.10;99.90
22540;DHT22;11436;50.860;4.334;2022-08-05T13:54:52;25.60;99.90
22540;DHT22;11436;50.860;4.334;2022-08-05T13:57:19;25.90;99.90
22540;DHT22;11436;50.860;4.334;2022-08-05T13:59:46;25.60;99.90
22540;DHT22;11436;50.860;4.334;2022-08-05T14:02:12;25.60;99.90
22540;DHT22;11436;50.860;4.334;2022-08-05T14:04:44;25.50;99.90
22540;DHT22;11436;50.860;4.334;2022-08-05T14:07:32;25.40;99.90
22540;DHT22;11436;50.860;4.334;2022-08-05T14:09:58;25.90;99.90
22540;DHT22;11436;50.860;4.334;2022-08-05T14:12:24;26.30;99.90
22540;DHT22;11436;50.860;4.334;2022-08-05T14:14:50;26.70;99.90
22540;DHT22;11436;50.860;4.334;2022-08-05T14:17:16;26.90;99.90
22540;DHT22;11436;50.860;4.334;2022-08-05T14:19:42;26.40;99.90
22540;DHT22;11436;50.860;4.334;2022-08-05T14:22:09;26.80;99.90
22540;DHT22;11436;50.860;4.334;2022-08-05T14:24:35;27.10;99.90
22540;DHT22;11436;50.860;4.334;2022-08-05T14:27:02;27.50;99.90
22540;DHT22;11436;50.860;4.334;2022-08-05T14:29:28;27.70;99.90
22540;DHT22;11436;50.860;4.334;2022-08-05T14:31:53;26.90;99.90
22540;DHT22;11436;50.860;4.334;2022-08-05T14:34:19;26.30;99.90
22540;DHT22;11436;50.860;4.334;2022-08-05T14:36:45;25.90;99.90
22540;DHT22;11436;50.860;4.334;2022-08-05T14:39:11;25.60;99.90
22540;DHT22;11436;50.860;4.334;2022-08-05T14:41:37;25.30;99.90
22540;DHT22;11436;50.860;4.334;2022-08-05T14:44:03;24.60;99.90
22540;DHT22;11436;50.860;4.334;2022-08-05T14:46:29;24.60;99.90
22540;DHT22;11436;50.860;4.334;2022-08-05T14:48:59;24.60;99.90
22540;DHT22;11436;50.860;4.334;2022-08-05T14:51:26;24.70;99.90
22540;DHT22;11436;50.860;4.334;2022-08-05T14:53:52;24.70;99.90
22540;DHT22;11436;50.860;4.334;2022-08-05T14:56:18;24.60;99.90
22540;DHT22;11436;50.860;4.334;2022-08-05T14:58:44;24.40;99.90
22540;DHT22;11436;50.860;4.334;2022-08-05T15:01:10;24.30;99.90
22540;DHT22;11436;50.860;4.334;2022-08-05T15:03:36;24.10;99.90
22540;DHT22;11436;50.860;4.334;2022-08-05T15:06:02;24.10;99.90
22540;DHT22;11436;50.860;4.334;2022-08-05T15:08:28;24.30;99.90
22540;DHT22;11436;50.860;4.334;2022-08-05T15:10:54;25.10;99.90
22540;DHT22;11436;50.860;4.334;2022-08-05T15:13:19;25.70;99.90
22540;DHT22;11436;50.860;4.334;2022-08-05T15:15:45;26.30;99.90
22540;DHT22;11436;50.860;4.334;2022-08-05T15:18:12;26.30;99.90
22540;DHT22;11436;50.860;4.334;2022-08-05T15:20:38;26.80;99.90
22540;DHT22;11436;50.860;4.334;2022-08-05T15:23:05;27.00;99.90
22540;DHT22;11436;50.860;4.334;2022-08-05T15:25:31;26.30;99.90
22540;DHT22;11436;50.860;4.334;2022-08-05T15:27:57;26.70;99.90
22540;DHT22;11436;50.860;4.334;2022-08-05T15:30:23;27.10;99.90
22540;DHT22;11436;50.860;4.334;2022-08-05T15:32:48;27.10;99.90
22540;DHT22;11436;50.860;4.334;2022-08-05T15:35:16;28.00;99.90
22540;DHT22;11436;50.860;4.334;2022-08-05T15:37:41;28.00;99.90
22540;DHT22;11436;50.860;4.334;2022-08-05T15:40:08;28.40;99.90
22540;DHT22;11436;50.860;4.334;2022-08-05T15:42:34;29.60;99.90
22540;DHT22;11436;50.860;4.334;2022-08-05T15:44:59;29.70;99.90
22540;DHT22;11436;50.860;4.334;2022-08-05T15:47:25;28.10;99.90
22540;DHT22;11436;50.860;4.334;2022-08-05T15:49:51;27.20;99.90
22540;DHT22;11436;50.860;4.334;2022-08-05T15:52:18;28.20;99.90
22540;DHT22;11436;50.860;4.334;2022-08-05T15:54:44;28.40;99.90
22540;DHT22;11436;50.860;4.334;2022-08-05T15:57:10;28.90;99.90
22540;DHT22;11436;50.860;4.334;2022-08-05T15:59:36;28.40;99.90
22540;DHT22;11436;50.860;4.334;2022-08-05T16:02:02;28.10;99.90
22540;DHT22;11436;50.860;4.334;2022-08-05T16:04:28;27.00;99.90
22540;DHT22;11436;50.860;4.334;2022-08-05T16:06:54;26.60;99.90
22540;DHT22;11436;50.860;4.334;2022-08-05T16:09:20;27.00;99.90
22540;DHT22;11436;50.860;4.334;2022-08-05T16:11:46;26.90;99.90
22540;DHT22;11436;50.860;4.334;2022-08-05T16:14:12;27.00;99.90
22540;DHT22;11436;50.860;4.334;2022-08-05T16:16:37;27.50;99.90
22540;DHT22;11436;50.860;4.334;2022-08-05T16:19:03;27.80;99.90
22540;DHT22;11436;50.860;4.334;2022-08-05T16:21:30;27.80;99.90